Time;durP1;ratioP1;P1;durP2;ratioP2;P2;SDS_P1;SDS_P2;PMS_P1;PMS_P2;Temp;Humidity;BMP_temperature;BMP_pressure;BME280_temperature;BME280_humidity;BME280_pressure;Samples;Min_cycle;Max_cycle;Signal;HPM_P1;HPM_P2
2023/08/01 00:00:21;;;;;;;5.78;1.73;;;;;;;17.66;93.96;98166.41;4484458;32;20572;-67
2023/08/01 00:02:51;;;;;;;2.22;1.20;;;;;;;17.75;93.85;98170.50;4484417;32;20106;-67
2023/08/01 00:05:18;;;;;;;3.62;1.50;;;;;;;17.68;94.60;98164.37;4484345;32;20116;-67
2023/08/01 00:07:46;;;;;;;4.53;1.58;;;;;;;17.73;94.81;98162.75;4484329;31;20550;-67
2023/08/01 00:10:16;;;;;;;3.45;1.50;;;;;;;17.64;96.66;98163.13;4484452;31;20130;-67
2023/08/01 00:12:43;;;;;;;3.55;1.35;;;;;;;17.61;97.64;98167.00;4484582;32;20088;-67
2023/08/01 00:15:11;;;;;;;2.95;1.52;;;;;;;17.60;98.03;98167.19;4484162;31;20097;-67
2023/08/01 00:17:39;;;;;;;2.50;1.60;;;;;;;17.66;97.71;98161.09;4484456;31;20154;-67
2023/08/01 00:20:08;;;;;;;3.50;1.67;;;;;;;17.60;97.89;98157.41;4484067;31;20076;-67
2023/08/01 00:22:36;;;;;;;2.78;1.48;;;;;;;17.65;97.51;98159.47;4484920;31;20101;-67
2023/08/01 00:25:04;;;;;;;5.30;1.40;;;;;;;17.66;97.21;98159.25;4486037;31;20150;-67
2023/08/01 00:27:32;;;;;;;5.28;1.58;;;;;;;17.69;96.70;98160.72;4486317;31;20100;-67
2023/08/01 00:30:08;;;;;;;3.67;1.58;;;;;;;17.63;96.84;98156.22;4486425;31;20431;-67
2023/08/01 00:32:42;;;;;;;5.40;1.92;;;;;;;17.60;97.62;98153.94;4486315;31;20494;-67
2023/08/01 00:35:10;;;;;;;3.92;1.65;;;;;;;17.57;98.26;98160.44;4486141;31;20096;-67
2023/08/01 00:37:38;;;;;;;3.30;1.77;;;;;;;17.48;98.39;98151.84;4486157;31;20537;-67
2023/08/01 00:40:07;;;;;;;2.85;1.33;;;;;;;17.40;99.05;98151.22;4485942;31;20088;-67
2023/08/01 00:42:37;;;;;;;6.40;1.60;;;;;;;17.35;99.82;98135.91;4486149;31;20427;-67
2023/08/01 00:45:06;;;;;;;6.53;1.33;;;;;;;17.27;100.00;98146.66;4485944;31;20449;-67
2023/08/01 00:47:34;;;;;;;3.28;1.75;;;;;;;17.23;100.00;98142.75;4501867;31;20504;-67
2023/08/01 00:50:03;;;;;;;3.58;1.62;;;;;;;17.16;100.00;98140.09;4501607;31;20677;-67
2023/08/01 00:52:31;;;;;;;4.55;1.67;;;;;;;17.08;100.00;98143.72;4484781;32;20092;-67
2023/08/01 00:54:58;;;;;;;2.33;1.35;;;;;;;16.99;100.00;98135.09;4486080;32;20143;-67
2023/08/01 00:57:26;;;;;;;2.97;1.55;;;;;;;16.99;100.00;98129.00;4484779;32;20105;-67
2023/08/01 00:59:54;;;;;;;4.20;1.80;;;;;;;16.92;100.00;98131.59;4485831;31;20434;-67
2023/08/01 01:02:21;;;;;;;1.60;1.20;;;;;;;16.88;100.00;98125.06;4485875;31;20581;-67
2023/08/01 01:04:49;;;;;;;2.30;1.37;;;;;;;16.81;100.00;98122.31;4485977;31;20100;-67
2023/08/01 01:07:18;;;;;;;3.50;1.30;;;;;;;16.77;100.00;98120.25;4485802;32;20437;-67
2023/08/01 01:09:47;;;;;;;2.65;1.33;;;;;;;16.75;100.00;98115.16;4484584;32;20093;-67
2023/08/01 01:12:15;;;;;;;6.12;1.75;;;;;;;16.73;100.00;98117.19;4485832;32;20123;-67
2023/08/01 01:14:42;;;;;;;2.03;1.58;;;;;;;16.71;100.00;98111.25;4485685;32;20135;-67
2023/08/01 01:17:10;;;;;;;2.50;1.60;;;;;;;16.68;100.00;98111.66;4485829;32;20099;-67
2023/08/01 01:19:38;;;;;;;2.90;1.67;;;;;;;16.67;100.00;98120.63;4485680;32;20089;-67
2023/08/01 01:22:18;;;;;;;2.55;1.52;;;;;;;16.63;100.00;98108.78;4485914;31;20157;-67
2023/08/01 01:24:47;;;;;;;3.17;1.73;;;;;;;16.57;100.00;98110.34;4484470;32;20096;-67
2023/08/01 01:27:16;;;;;;;3.15;1.48;;;;;;;16.52;100.00;98117.22;4484389;32;20096;-67
2023/08/01 01:29:44;;;;;;;2.10;1.42;;;;;;;16.45;100.00;98115.34;4484436;32;20123;-67
2023/08/01 01:32:13;;;;;;;3.90;1.65;;;;;;;16.43;100.00;98109.44;4484587;32;20493;-67
2023/08/01 01:34:44;;;;;;;4.25;1.60;;;;;;;16.37;100.00;98109.41;4484186;32;20157;-67
2023/08/01 01:37:11;;;;;;;3.87;1.80;;;;;;;16.34;100.00;98101.84;4485700;31;20100;-67
2023/08/01 01:39:40;;;;;;;4.47;1.45;;;;;;;16.28;100.00;98092.84;4501442;31;20118;-67
2023/08/01 01:42:07;;;;;;;1.98;1.42;;;;;;;16.24;100.00;98091.59;4501479;31;20088;-67
2023/08/01 01:44:35;;;;;;;3.95;1.50;;;;;;;16.24;100.00;98086.31;4501459;31;20092;-67
2023/08/01 01:47:03;;;;;;;2.67;1.70;;;;;;;16.18;100.00;98095.00;4501281;31;20115;-67
2023/08/01 01:49:30;;;;;;;4.12;1.73;;;;;;;16.15;100.00;98096.19;4501360;31;20101;-67
2023/08/01 01:52:01;;;;;;;2.85;1.40;;;;;;;16.09;100.00;98097.78;4494351;31;20080;-67
2023/08/01 01:54:29;;;;;;;3.00;1.60;;;;;;;16.08;100.00;98096.13;4485452;32;20488;-67
2023/08/01 01:56:57;;;;;;;3.92;1.48;;;;;;;16.06;100.00;98087.56;4485641;32;20158;-67
2023/08/01 01:59:24;;;;;;;2.20;1.80;;;;;;;16.05;100.00;98085.94;4485630;32;20104;-67
2023/08/01 02:01:52;;;;;;;3.58;1.70;;;;;;;16.06;100.00;98081.47;4485463;32;20114;-67
2023/08/01 02:04:21;;;;;;;4.10;2.15;;;;;;;15.95;100.00;98086.22;4485547;31;20092;-67
2023/08/01 02:06:49;;;;;;;2.30;1.58;;;;;;;15.92;100.00;98083.16;4485510;32;20119;-67
2023/08/01 02:09:17;;;;;;;4.85;1.60;;;;;;;15.87;100.00;98089.00;4485668;32;20111;-67
2023/08/01 02:11:44;;;;;;;4.57;1.60;;;;;;;15.81;100.00;98075.75;4485672;32;20092;-67
2023/08/01 02:14:13;;;;;;;3.80;1.50;;;;;;;15.76;100.00;98082.38;4485421;31;20084;-67
2023/08/01 02:16:41;;;;;;;3.80;1.80;;;;;;;15.72;100.00;98073.19;4485609;31;20794;-67
2023/08/01 02:19:09;;;;;;;4.47;1.52;;;;;;;15.64;100.00;98075.94;4485674;31;20563;-67
2023/08/01 02:21:37;;;;;;;3.65;1.90;;;;;;;15.56;100.00;98066.31;4485317;32;20085;-67
2023/08/01 02:24:04;;;;;;;7.07;1.80;;;;;;;15.51;100.00;98060.78;4485263;32;20166;-67
2023/08/01 02:26:34;;;;;;;3.83;2.00;;;;;;;15.52;100.00;98066.84;4501172;31;20084;-67
2023/08/01 02:29:02;;;;;;;3.22;1.73;;;;;;;15.44;100.00;98066.00;4500927;31;20092;-67
2023/08/01 02:31:31;;;;;;;6.00;1.92;;;;;;;15.45;100.00;98064.16;4501134;31;20100;-67
2023/08/01 02:33:58;;;;;;;2.55;1.77;;;;;;;15.43;100.00;98061.69;4501253;31;20486;-67
2023/08/01 02:36:27;;;;;;;5.30;1.90;;;;;;;15.49;100.00;98065.44;4501163;31;20092;-67
2023/08/01 02:38:56;;;;;;;4.43;2.05;;;;;;;15.52;100.00;98057.13;4500939;31;20594;-67
2023/08/01 02:41:24;;;;;;;4.32;2.17;;;;;;;15.49;100.00;98051.38;4501487;31;20096;-67
2023/08/01 02:43:52;;;;;;;5.80;1.83;;;;;;;15.51;100.00;98054.69;4501070;31;20192;-67
2023/08/01 02:46:20;;;;;;;5.50;1.92;;;;;;;15.51;100.00;98057.31;4500070;31;20152;-67
2023/08/01 02:48:48;;;;;;;4.00;1.90;;;;;;;15.53;100.00;98060.59;4500703;31;20100;-67
2023/08/01 02:51:16;;;;;;;5.47;1.83;;;;;;;15.53;100.00;98056.09;4484521;31;20115;-67
2023/08/01 02:53:43;;;;;;;5.18;2.05;;;;;;;15.57;100.00;98061.84;4485178;32;20100;-67
2023/08/01 02:56:11;;;;;;;5.15;1.90;;;;;;;15.57;100.00;98062.66;4485417;31;20092;-67
2023/08/01 02:58:39;;;;;;;5.47;2.12;;;;;;;15.62;100.00;98059.47;4485250;31;20465;-67
2023/08/01 03:01:09;;;;;;;6.82;2.20;;;;;;;15.67;100.00;98061.53;4485173;31;20130;-67
2023/08/01 03:03:37;;;;;;;9.95;2.55;;;;;;;15.71;100.00;98055.69;4485290;31;20147;-67
2023/08/01 03:06:05;;;;;;;7.10;2.30;;;;;;;15.72;100.00;98054.69;4485052;32;20135;-67
2023/08/01 03:08:32;;;;;;;3.17;2.35;;;;;;;15.68;100.00;98047.34;4485164;32;20111;-67
2023/08/01 03:11:01;;;;;;;4.25;2.12;;;;;;;15.71;100.00;98047.78;4485119;31;20084;-67
2023/08/01 03:13:29;;;;;;;5.25;2.12;;;;;;;15.72;100.00;98049.41;4484986;31;20570;-67
2023/08/01 03:15:58;;;;;;;10.90;2.58;;;;;;;15.74;100.00;98052.69;4485148;31;20137;-67
2023/08/01 03:18:25;;;;;;;4.53;2.05;;;;;;;15.76;100.00;98050.69;4484944;32;20092;-67
2023/08/01 03:20:53;;;;;;;5.12;2.10;;;;;;;15.74;100.00;98047.41;4500739;31;20095;-67
2023/08/01 03:23:21;;;;;;;4.60;2.20;;;;;;;15.80;100.00;98040.59;4500655;31;20088;-67
2023/08/01 03:25:49;;;;;;;6.43;2.53;;;;;;;15.89;100.00;98034.16;4500628;31;20103;-67
2023/08/01 03:28:17;;;;;;;5.15;2.15;;;;;;;16.09;100.00;98038.81;4500587;31;20122;-67
2023/08/01 03:30:44;;;;;;;13.68;2.37;;;;;;;16.23;100.00;98039.72;4500558;31;20118;-67
2023/08/01 03:33:12;;;;;;;6.72;2.37;;;;;;;16.26;100.00;98044.63;4486419;31;20162;-67
2023/08/01 03:35:40;;;;;;;5.50;2.30;;;;;;;16.33;100.00;98037.56;4486751;31;20107;-67
2023/08/01 03:38:08;;;;;;;4.68;1.98;;;;;;;16.32;100.00;98042.06;4500357;31;20171;-67
2023/08/01 03:40:37;;;;;;;6.00;3.37;;;;;;;16.36;100.00;98044.31;4500430;31;20105;-67
2023/08/01 03:43:06;;;;;;;6.90;2.53;;;;;;;16.42;100.00;98047.00;4500376;31;20091;-67
2023/08/01 03:45:33;;;;;;;5.75;2.28;;;;;;;16.45;100.00;98033.38;4500458;31;20115;-67
2023/08/01 03:48:01;;;;;;;6.72;2.80;;;;;;;16.55;100.00;98038.34;4500498;31;20553;-67
2023/08/01 03:50:29;;;;;;;6.93;2.30;;;;;;;16.58;100.00;98031.84;4500332;31;20122;-67
2023/08/01 03:52:58;;;;;;;5.70;2.17;;;;;;;16.65;100.00;98032.69;4487083;31;20088;-67
2023/08/01 03:55:26;;;;;;;4.78;2.20;;;;;;;16.73;100.00;98029.06;4484555;31;20151;-67
2023/08/01 03:57:54;;;;;;;3.28;2.15;;;;;;;16.80;100.00;98029.94;4489082;31;20092;-67
2023/08/01 04:00:21;;;;;;;3.87;2.40;;;;;;;16.83;100.00;98025.06;4489626;32;20123;-67
2023/08/01 04:02:50;;;;;;;5.20;2.72;;;;;;;16.93;100.00;98024.75;4489676;31;20104;-68
2023/08/01 04:05:18;;;;;;;3.92;2.28;;;;;;;17.05;100.00;98024.19;4489878;32;20135;-67
2023/08/01 04:07:46;;;;;;;5.25;2.40;;;;;;;17.12;100.00;98023.22;4489501;31;20100;-67
2023/08/01 04:10:14;;;;;;;8.98;2.70;;;;;;;17.29;100.00;98022.84;4489498;32;20123;-67
2023/08/01 04:12:42;;;;;;;12.68;2.65;;;;;;;17.42;100.00;98022.09;4489500;31;20100;-69
2023/08/01 04:15:10;;;;;;;10.13;2.90;;;;;;;17.66;100.00;98023.38;4489513;31;20606;-69
2023/08/01 04:17:38;;;;;;;3.87;2.22;;;;;;;17.87;100.00;98031.12;4489522;31;20434;-69
2023/08/01 04:20:06;;;;;;;6.25;2.40;;;;;;;17.93;100.00;98026.09;4489384;31;20115;-69
2023/08/01 04:22:34;;;;;;;10.82;2.47;;;;;;;17.96;100.00;98026.50;4489778;31;20108;-69
2023/08/01 04:25:02;;;;;;;7.50;2.70;;;;;;;18.20;100.00;98029.56;4489318;32;20112;-69
2023/08/01 04:27:33;;;;;;;4.37;2.40;;;;;;;18.21;100.00;98023.22;4489549;31;20140;-69
2023/08/01 04:30:00;;;;;;;5.37;2.58;;;;;;;18.17;100.00;98030.78;4489278;32;20118;-69
2023/08/01 04:32:28;;;;;;;4.80;2.55;;;;;;;18.29;100.00;98028.34;4488218;31;20095;-69
2023/08/01 04:34:56;;;;;;;6.12;2.60;;;;;;;18.35;100.00;98029.31;4489200;32;20152;-70
2023/08/01 04:37:25;;;;;;;4.60;2.25;;;;;;;18.35;100.00;98026.69;4489237;32;20467;-69
2023/08/01 04:39:53;;;;;;;4.28;2.30;;;;;;;18.40;100.00;98025.03;4489290;31;20096;-70
2023/08/01 04:42:21;;;;;;;4.72;2.50;;;;;;;18.54;100.00;98019.72;4488002;32;20100;-69
2023/08/01 04:44:50;;;;;;;5.55;2.55;;;;;;;18.73;100.00;98015.41;4488409;32;20109;-69
2023/08/01 04:47:18;;;;;;;5.45;2.60;;;;;;;19.03;100.00;98015.75;4488710;32;20466;-69
2023/08/01 04:49:46;;;;;;;3.28;2.45;;;;;;;19.21;100.00;98019.53;4487991;31;20088;-70
2023/08/01 04:52:14;;;;;;;5.53;2.62;;;;;;;19.37;100.00;98011.09;4488905;31;20172;-69
2023/08/01 04:54:42;;;;;;;6.20;2.92;;;;;;;19.64;100.00;98013.59;4488979;31;20084;-70
2023/08/01 04:57:09;;;;;;;7.55;3.17;;;;;;;19.77;100.00;98007.38;4489035;32;20179;-69
2023/08/01 04:59:37;;;;;;;8.93;2.50;;;;;;;19.80;100.00;98015.78;4488119;31;20092;-69
2023/08/01 05:02:06;;;;;;;9.60;2.62;;;;;;;19.88;99.20;98011.22;4488748;32;20183;-69
2023/08/01 05:04:35;;;;;;;4.22;2.90;;;;;;;19.95;99.01;98007.47;4488700;32;20119;-69
2023/08/01 05:07:05;;;;;;;4.37;2.60;;;;;;;20.02;100.00;98002.91;4488786;32;20080;-69
2023/08/01 05:09:33;;;;;;;7.37;2.72;;;;;;;20.14;99.26;98004.87;4485393;32;20476;-69
2023/08/01 05:12:01;;;;;;;3.83;2.53;;;;;;;20.06;100.00;98013.97;4486356;32;20118;-69
2023/08/01 05:14:28;;;;;;;6.57;2.92;;;;;;;20.16;99.05;98011.59;4485957;31;20100;-69
2023/08/01 05:16:56;;;;;;;4.25;2.55;;;;;;;20.23;99.54;98006.25;4485520;32;20093;-69
2023/08/01 05:19:24;;;;;;;4.80;2.60;;;;;;;20.45;98.81;98011.94;4498108;31;20144;-69
2023/08/01 05:21:52;;;;;;;4.62;2.22;;;;;;;20.59;98.29;98012.66;4501545;31;20091;-69
2023/08/01 05:24:19;;;;;;;8.80;2.50;;;;;;;20.73;96.92;98006.19;4501876;31;20461;-69
2023/08/01 05:26:49;;;;;;;7.50;2.60;;;;;;;20.81;95.33;98001.59;4501333;31;20084;-69
2023/08/01 05:29:16;;;;;;;9.50;2.58;;;;;;;21.01;95.50;98002.16;4501529;31;20092;-69
2023/08/01 05:31:45;;;;;;;7.82;2.62;;;;;;;21.12;93.84;97995.28;4501727;31;20092;-69
2023/08/01 05:34:13;;;;;;;6.43;2.67;;;;;;;21.23;92.91;97997.19;4501495;31;20096;-69
2023/08/01 05:36:40;;;;;;;5.55;2.67;;;;;;;21.36;92.20;98020.19;4501553;31;20118;-69
2023/08/01 05:39:09;;;;;;;4.65;2.33;;;;;;;21.35;89.73;98007.91;4501360;31;20093;-69
2023/08/01 05:41:38;;;;;;;6.62;3.17;;;;;;;21.55;91.54;98012.16;4501268;31;20100;-69
2023/08/01 05:44:05;;;;;;;6.75;2.58;;;;;;;21.58;89.57;98014.38;4501265;31;20545;-69
2023/08/01 05:46:34;;;;;;;5.45;2.47;;;;;;;21.56;90.99;98011.09;4501327;31;20092;-69
2023/08/01 05:49:03;;;;;;;3.80;2.00;;;;;;;21.45;90.39;98015.34;4501301;31;20131;-69
2023/08/01 05:51:32;;;;;;;5.37;2.55;;;;;;;21.52;89.15;98017.97;4497407;31;20453;-69
2023/08/01 05:54:00;;;;;;;4.82;2.33;;;;;;;21.78;88.09;98014.88;4485604;32;20088;-69
2023/08/01 05:56:29;;;;;;;5.68;2.37;;;;;;;21.92;88.09;98014.69;4485540;31;20100;-69
2023/08/01 05:58:57;;;;;;;5.90;2.65;;;;;;;22.12;84.64;98017.03;4485891;31;20164;-69
2023/08/01 06:01:27;;;;;;;5.80;2.70;;;;;;;22.05;87.04;98011.00;4485415;31;20172;-69
2023/08/01 06:03:56;;;;;;;6.70;3.03;;;;;;;22.37;85.93;98018.72;4484845;31;20118;-69
2023/08/01 06:06:25;;;;;;;5.07;2.90;;;;;;;22.55;84.99;98015.91;4485380;31;20131;-69
2023/08/01 06:08:53;;;;;;;5.00;2.33;;;;;;;22.64;84.19;98019.06;4484895;31;20529;-68
2023/08/01 06:11:20;;;;;;;5.15;2.85;;;;;;;22.65;82.02;98021.50;4485285;32;20101;-68
2023/08/01 06:13:53;;;;;;;4.97;2.70;;;;;;;22.52;82.56;98020.94;4484409;31;20108;-68
2023/08/01 06:16:21;;;;;;;8.98;3.08;;;;;;;22.39;85.71;98017.44;4478050;32;20583;-68
2023/08/01 06:18:48;;;;;;;4.07;2.40;;;;;;;22.47;84.71;98019.75;4485164;32;20111;-68
2023/08/01 06:21:17;;;;;;;4.40;2.55;;;;;;;22.60;84.93;98010.69;4483973;31;20157;-68
2023/08/01 06:23:46;;;;;;;8.38;2.70;;;;;;;22.84;84.92;98013.34;4484671;31;20105;-69
2023/08/01 06:26:15;;;;;;;11.95;3.10;;;;;;;22.74;83.56;98018.44;4485264;31;20427;-69
2023/08/01 06:28:44;;;;;;;9.50;2.95;;;;;;;23.05;83.31;98017.22;4485086;31;20522;-70
2023/08/01 06:31:13;;;;;;;6.03;2.40;;;;;;;23.20;80.86;98017.56;4484884;31;20107;-70
2023/08/01 06:33:41;;;;;;;5.25;2.20;;;;;;;23.39;79.17;98017.38;4485002;31;20153;-67
2023/08/01 06:36:09;;;;;;;4.00;2.08;;;;;;;23.52;79.85;98013.59;4480721;32;20478;-67
2023/08/01 06:38:37;;;;;;;12.20;3.33;;;;;;;23.62;77.13;98004.94;4484676;31;20250;-67
2023/08/01 06:41:05;;;;;;;9.95;2.20;;;;;;;23.77;75.46;98009.75;4485112;32;20083;-67
2023/08/01 06:43:37;;;;;;;6.15;2.92;;;;;;;23.72;78.59;98013.16;4484852;31;20737;-66
2023/08/01 06:46:05;;;;;;;7.20;2.65;;;;;;;23.83;75.06;98009.63;4472090;32;20108;-67
2023/08/01 06:48:34;;;;;;;4.90;2.30;;;;;;;23.97;75.38;98014.66;4484868;31;20093;-67
2023/08/01 06:51:02;;;;;;;85.68;10.13;;;;;;;23.98;74.94;98006.41;4484435;31;20119;-67
2023/08/01 06:53:30;;;;;;;21.00;5.20;;;;;;;24.04;75.91;98008.12;4480850;32;20363;-66
2023/08/01 06:56:00;;;;;;;46.80;9.57;;;;;;;24.07;75.01;98006.81;4484671;31;20191;-67
2023/08/01 06:58:27;;;;;;;56.45;8.52;;;;;;;24.15;76.75;98005.56;4483699;32;20100;-67
2023/08/01 07:00:55;;;;;;;79.68;14.20;;;;;;;24.37;75.90;98002.97;4485186;31;20641;-67
2023/08/01 07:03:23;;;;;;;21.05;5.50;;;;;;;24.42;74.75;98005.72;4484645;31;20092;-67
2023/08/01 07:05:51;;;;;;;12.23;3.28;;;;;;;24.48;73.03;98003.94;4484422;32;20452;-67
2023/08/01 07:08:21;;;;;;;31.15;4.90;;;;;;;24.51;76.10;98004.25;4484651;31;20214;-67
2023/08/01 07:10:49;;;;;;;11.77;2.87;;;;;;;24.84;75.65;98005.25;4484810;31;20448;-67
2023/08/01 07:13:19;;;;;;;3.58;2.15;;;;;;;24.73;71.05;98000.81;4484737;31;20100;-67
2023/08/01 07:15:47;;;;;;;9.13;2.70;;;;;;;24.78;70.95;98000.88;4482809;32;20123;-67
2023/08/01 07:18:14;;;;;;;3.17;2.05;;;;;;;24.97;70.01;98002.19;4472309;32;20096;-67
2023/08/01 07:20:42;;;;;;;4.97;2.25;;;;;;;25.07;68.14;97993.47;4484848;31;20099;-67
2023/08/01 07:23:10;;;;;;;5.87;2.50;;;;;;;25.02;69.49;98003.31;4484419;31;20100;-67
2023/08/01 07:25:39;;;;;;;6.50;2.15;;;;;;;25.18;68.56;97990.88;4482909;32;20478;-67
2023/08/01 07:28:08;;;;;;;3.17;1.98;;;;;;;25.32;69.29;97992.97;4484234;31;20116;-67
2023/08/01 07:30:36;;;;;;;3.45;2.00;;;;;;;25.55;66.92;97983.00;4484415;31;20397;-67
2023/08/01 07:33:04;;;;;;;4.97;1.90;;;;;;;25.68;65.94;97981.78;4483842;31;20133;-67
2023/08/01 07:35:33;;;;;;;2.55;1.80;;;;;;;25.72;65.57;97974.81;4484178;31;20100;-67
2023/08/01 07:38:01;;;;;;;3.25;1.75;;;;;;;25.74;66.41;97978.09;4484436;31;20615;-67
2023/08/01 07:40:28;;;;;;;3.53;2.00;;;;;;;25.92;65.72;97984.09;4483683;31;20091;-67
2023/08/01 07:42:56;;;;;;;3.22;1.83;;;;;;;25.81;65.99;97977.84;4484232;32;20651;-67
2023/08/01 07:45:24;;;;;;;5.35;2.08;;;;;;;25.74;67.57;97983.44;4484206;31;20104;-67
2023/08/01 07:47:52;;;;;;;9.30;2.42;;;;;;;25.97;65.84;97981.47;4484298;31;20496;-67
2023/08/01 07:50:21;;;;;;;14.15;2.00;;;;;;;26.16;62.93;97971.16;4472466;32;20157;-67
2023/08/01 07:52:50;;;;;;;7.05;2.17;;;;;;;26.20;63.00;97962.34;4478693;31;20127;-67
2023/08/01 07:55:20;;;;;;;7.68;2.00;;;;;;;26.61;59.13;97972.50;4484294;32;20114;-67
2023/08/01 07:57:49;;;;;;;7.47;1.87;;;;;;;26.88;59.70;97964.31;4484204;31;20076;-67
2023/08/01 08:00:17;;;;;;;40.67;5.10;;;;;;;26.92;57.34;97967.31;4484393;32;20096;-68
2023/08/01 08:02:46;;;;;;;4.05;1.95;;;;;;;26.84;58.43;97955.16;4484231;31;20096;-67
2023/08/01 08:05:14;;;;;;;3.20;1.75;;;;;;;27.05;57.79;97964.09;4483693;31;20176;-67
2023/08/01 08:07:43;;;;;;;4.47;1.95;;;;;;;27.36;56.61;97969.59;4483969;31;20092;-67
2023/08/01 08:10:12;;;;;;;4.47;1.73;;;;;;;27.59;55.02;97964.78;4482487;32;20531;-68
2023/08/01 08:12:41;;;;;;;3.00;1.80;;;;;;;27.78;55.29;97965.87;4484221;31;20097;-67
2023/08/01 08:15:09;;;;;;;2.75;1.85;;;;;;;27.68;54.02;97963.19;4481340;31;20542;-67
2023/08/01 08:17:36;;;;;;;5.97;1.83;;;;;;;27.73;53.94;97959.69;4484101;31;20118;-67
2023/08/01 08:20:06;;;;;;;3.90;1.65;;;;;;;27.38;54.64;97962.06;4483916;31;20093;-68
2023/08/01 08:22:33;;;;;;;2.80;1.80;;;;;;;27.42;54.90;97962.34;4484126;31;20097;-67
2023/08/01 08:25:02;;;;;;;9.95;2.17;;;;;;;27.46;54.56;97963.41;4483813;31;20092;-67
2023/08/01 08:27:29;;;;;;;10.50;2.08;;;;;;;27.07;56.60;97959.28;4483768;31;20081;-67
2023/08/01 08:29:58;;;;;;;5.85;1.90;;;;;;;26.62;59.62;97959.91;4482444;32;20100;-67
2023/08/01 08:32:30;;;;;;;3.80;1.92;;;;;;;27.01;58.85;97957.66;4481213;32;20096;-67
2023/08/01 08:34:58;;;;;;;4.37;1.80;;;;;;;27.41;55.17;97949.97;4483096;32;20488;-67
2023/08/01 08:37:27;;;;;;;4.50;1.85;;;;;;;27.71;57.01;97953.75;4483741;31;20108;-67
2023/08/01 08:39:56;;;;;;;2.67;1.83;;;;;;;27.88;55.16;97951.59;4483096;31;20131;-67
2023/08/01 08:42:24;;;;;;;2.28;1.70;;;;;;;28.06;54.53;97952.16;4483667;31;20119;-67
2023/08/01 08:44:55;;;;;;;4.70;1.98;;;;;;;28.25;52.79;97947.00;4485513;32;20092;-68
2023/08/01 08:47:27;;;;;;;4.07;1.58;;;;;;;28.38;51.54;97943.72;4484612;32;20176;-67
2023/08/01 08:49:58;;;;;;;3.78;1.70;;;;;;;28.30;50.58;97953.19;4485358;31;20135;-67
2023/08/01 08:52:26;;;;;;;5.65;1.75;;;;;;;28.31;50.16;97952.09;4479816;32;20087;-67
2023/08/01 08:54:54;;;;;;;4.95;1.90;;;;;;;28.33;49.34;97949.13;4485339;31;20152;-67
2023/08/01 08:57:22;;;;;;;3.80;1.62;;;;;;;28.07;51.46;97942.97;4485917;31;20088;-67
2023/08/01 08:59:51;;;;;;;6.72;1.80;;;;;;;28.28;50.75;97938.34;4484870;32;20139;-67
2023/08/01 09:02:20;;;;;;;2.55;1.90;;;;;;;28.60;49.43;97931.81;4485911;32;20130;-67
2023/08/01 09:04:49;;;;;;;3.47;1.67;;;;;;;28.96;50.32;97918.19;4485848;31;20195;-67
2023/08/01 09:07:20;;;;;;;8.10;1.90;;;;;;;28.75;50.28;97923.69;4486051;31;20472;-67
2023/08/01 09:09:48;;;;;;;5.20;2.03;;;;;;;28.04;50.83;97920.13;4484710;32;20100;-71
2023/08/01 09:12:17;;;;;;;4.07;1.90;;;;;;;27.62;52.28;97921.19;4486111;31;20650;-67
2023/08/01 09:14:45;;;;;;;4.50;1.73;;;;;;;28.16;51.91;97919.78;4485859;32;20218;-69
2023/08/01 09:17:15;;;;;;;3.78;2.10;;;;;;;28.79;50.52;97908.56;4485735;31;20192;-69
2023/08/01 09:19:43;;;;;;;3.92;1.85;;;;;;;28.97;49.26;97903.63;4486078;31;20085;-69
2023/08/01 09:22:14;;;;;;;4.05;2.08;;;;;;;29.27;45.64;97901.84;4486012;31;20084;-69
2023/08/01 09:24:50;;;;;;;;;;;;;;;29.62;45.36;97886.47;4486095;31;20084;-70
2023/08/01 09:27:18;;;;;;;2.37;2.05;;;;;;;28.99;45.65;97896.87;4485697;31;20055;-68
2023/08/01 09:29:45;;;;;;;4.80;2.17;;;;;;;29.22;44.54;97893.78;4484451;32;20143;-68
2023/08/01 09:32:16;;;;;;;6.37;1.90;;;;;;;28.80;45.15;97894.00;4485948;32;20080;-69
2023/08/01 09:34:43;;;;;;;2.95;1.70;;;;;;;29.05;45.17;97894.12;4485656;31;20101;-69
2023/08/01 09:37:10;;;;;;;2.45;1.77;;;;;;;29.37;44.22;97885.56;4485696;32;20426;-69
2023/08/01 09:39:37;;;;;;;2.40;1.60;;;;;;;29.48;44.02;97883.59;4485552;32;20152;-68
2023/08/01 09:42:06;;;;;;;3.35;1.80;;;;;;;29.38;40.58;97892.59;4485730;31;20119;-68
2023/08/01 09:44:35;;;;;;;7.10;2.47;;;;;;;29.53;41.95;97884.34;4484381;32;20488;-69
2023/08/01 09:47:04;;;;;;;4.70;1.70;;;;;;;29.78;43.00;97882.53;4485542;31;20485;-68
2023/08/01 09:49:31;;;;;;;3.78;1.40;;;;;;;29.47;41.78;97884.69;4485292;31;20093;-68
2023/08/01 09:51:59;;;;;;;5.12;1.80;;;;;;;29.53;41.32;97878.16;4485665;31;20100;-68
2023/08/01 09:54:27;;;;;;;2.42;1.87;;;;;;;29.70;40.84;97883.13;4485285;32;20148;-68
2023/08/01 09:56:56;;;;;;;4.03;1.95;;;;;;;29.72;41.37;97875.53;4485563;31;20096;-68
2023/08/01 09:59:24;;;;;;;5.65;1.85;;;;;;;29.62;41.58;97867.56;4484187;32;20120;-68
2023/08/01 10:01:54;;;;;;;3.03;1.92;;;;;;;29.68;43.91;97863.72;4485582;32;20122;-68
2023/08/01 10:04:29;;;;;;;5.15;2.10;;;;;;;30.22;40.16;97857.25;4485647;32;20208;-68
2023/08/01 10:07:05;;;;;;;3.72;1.73;;;;;;;30.75;39.60;97860.91;4485743;31;20080;-68
2023/08/01 10:09:35;;;;;;;2.35;1.70;;;;;;;30.80;40.41;97844.63;4484239;32;20096;-68
2023/08/01 10:12:03;;;;;;;3.60;1.87;;;;;;;30.81;38.48;97851.63;4485592;31;20088;-68
2023/08/01 10:14:35;;;;;;;3.80;1.77;;;;;;;31.03;37.62;97847.56;4485276;31;20650;-68
2023/08/01 10:17:03;;;;;;;3.60;1.83;;;;;;;31.08;37.44;97856.41;4485459;31;20064;-68
2023/08/01 10:19:32;;;;;;;2.25;1.85;;;;;;;31.13;38.54;97847.44;4485581;31;20113;-70
2023/08/01 10:22:00;;;;;;;4.62;2.58;;;;;;;31.64;39.07;97849.31;4485479;31;20114;-69
2023/08/01 10:24:28;;;;;;;5.40;2.60;;;;;;;31.60;39.38;97845.59;4485343;32;20131;-69
2023/08/01 10:27:21;;;;;;;4.57;2.25;;;;;;;31.97;40.12;97838.38;4485360;31;20081;-69
2023/08/01 10:30:02;;;;;;;11.77;2.53;;;;;;;32.34;35.97;97833.91;4485382;31;20123;-68
2023/08/01 10:32:32;;;;;;;6.05;2.22;;;;;;;32.82;36.65;97831.81;4485594;31;20101;-69
2023/08/01 10:35:00;;;;;;;11.73;3.10;;;;;;;33.05;35.39;97828.03;4485486;31;20088;-68
2023/08/01 10:37:39;;;;;;;7.35;2.80;;;;;;;33.20;35.92;97812.50;4485219;31;20454;-68
2023/08/01 10:40:07;;;;;;;3.10;1.85;;;;;;;32.23;36.73;97829.78;4485316;31;20081;-68
2023/08/01 10:42:39;;;;;;;4.35;1.67;;;;;;;32.55;33.27;97836.16;4485277;31;20496;-67
2023/08/01 10:45:06;;;;;;;3.17;1.90;;;;;;;32.32;32.46;97821.75;4485480;31;20093;-68
2023/08/01 10:47:34;;;;;;;7.82;2.12;;;;;;;32.03;31.62;97820.94;4485168;31;20100;-69
2023/08/01 10:50:03;;;;;;;4.05;2.00;;;;;;;31.59;33.24;97816.09;4485127;31;20150;-68
2023/08/01 10:52:30;;;;;;;3.83;2.00;;;;;;;31.65;34.57;97813.00;4485234;31;20173;-68
2023/08/01 10:54:59;;;;;;;3.95;1.90;;;;;;;31.92;35.50;97802.50;4485256;32;20136;-68
2023/08/01 10:57:31;;;;;;;3.22;2.40;;;;;;;32.09;34.38;97810.00;4485495;31;20494;-68
2023/08/01 10:59:59;;;;;;;3.65;2.33;;;;;;;31.73;34.64;97799.88;4485452;31;20454;-68
2023/08/01 11:02:27;;;;;;;5.43;2.03;;;;;;;31.62;35.70;97791.13;4485285;31;20133;-69
2023/08/01 11:05:00;;;;;;;5.32;2.05;;;;;;;31.39;34.98;97792.88;4484976;31;20085;-68
2023/08/01 11:07:29;;;;;;;4.78;2.20;;;;;;;31.26;35.73;97781.69;4484240;31;20148;-68
2023/08/01 11:10:13;;;;;;;3.22;1.70;;;;;;;31.34;35.16;97784.84;4485006;31;20468;-68
2023/08/01 11:12:42;;;;;;;4.95;1.87;;;;;;;31.40;34.69;97786.34;4485280;31;20150;-69
2023/08/01 11:15:14;;;;;;;7.43;1.90;;;;;;;31.51;35.42;97776.97;4484835;31;20171;-68
2023/08/01 11:17:50;;;;;;;2.30;1.62;;;;;;;31.59;34.95;97773.56;4485233;31;20137;-68
2023/08/01 11:20:23;;;;;;;8.75;2.12;;;;;;;31.54;34.27;97779.06;4484995;31;20100;-68
2023/08/01 11:22:57;;;;;;;4.78;2.00;;;;;;;31.38;35.16;97767.69;4485126;31;20084;-68
2023/08/01 11:25:33;;;;;;;4.93;1.73;;;;;;;31.48;35.04;97759.41;4485081;31;20462;-68
2023/08/01 11:28:03;;;;;;;7.12;1.70;;;;;;;31.69;33.64;97766.34;4483614;32;20076;-68
2023/08/01 11:30:32;;;;;;;2.87;1.60;;;;;;;31.63;32.92;97757.56;4483714;32;20149;-69
2023/08/01 11:33:02;;;;;;;5.12;1.92;;;;;;;31.40;33.85;97759.28;4484902;31;20115;-68
2023/08/01 11:35:30;;;;;;;4.07;1.80;;;;;;;30.97;35.21;97752.16;4484805;31;20089;-68